sensor_id;sensor_type;location;lat;lon;timestamp;P1;durP1;ratioP1;P2;durP2;ratioP2
19509;SDS011;9896;42.486;26.506;2022-12-29T00:02:12;18.43;;;9.33;;
19509;SDS011;9896;42.486;26.506;2022-12-29T00:04:37;21.87;;;9.47;;
19509;SDS011;9896;42.486;26.506;2022-12-29T00:07:03;23.57;;;9.80;;
19509;SDS011;9896;42.486;26.506;2022-12-29T00:09:32;19.43;;;7.87;;
19509;SDS011;9896;42.486;26.506;2022-12-29T00:11:58;19.70;;;7.87;;
19509;SDS011;9896;42.486;26.506;2022-12-29T00:14:23;22.20;;;8.53;;
19509;SDS011;9896;42.486;26.506;2022-12-29T00:17:07;20.60;;;9.30;;
19509;SDS011;9896;42.486;26.506;2022-12-29T00:19:33;24.93;;;9.77;;
19509;SDS011;9896;42.486;26.506;2022-12-29T00:22:16;22.57;;;11.03;;
19509;SDS011;9896;42.486;26.506;2022-12-29T00:25:01;22.80;;;9.60;;
19509;SDS011;9896;42.486;26.506;2022-12-29T00:27:29;21.27;;;9.33;;
19509;SDS011;9896;42.486;26.506;2022-12-29T00:30:17;22.03;;;9.97;;
19509;SDS011;9896;42.486;26.506;2022-12-29T00:33:01;21.20;;;9.53;;
19509;SDS011;9896;42.486;26.506;2022-12-29T00:35:52;21.27;;;8.10;;
19509;SDS011;9896;42.486;26.506;2022-12-29T00:38:19;23.73;;;9.67;;
19509;SDS011;9896;42.486;26.506;2022-12-29T00:41:03;25.20;;;9.27;;
19509;SDS011;9896;42.486;26.506;2022-12-29T00:43:47;22.03;;;8.33;;
19509;SDS011;9896;42.486;26.506;2022-12-29T00:46:34;15.17;;;8.20;;
19509;SDS011;9896;42.486;26.506;2022-12-29T00:49:00;21.87;;;9.57;;
19509;SDS011;9896;42.486;26.506;2022-12-29T00:51:44;21.10;;;8.90;;
19509;SDS011;9896;42.486;26.506;2022-12-29T00:54:10;22.30;;;10.03;;
19509;SDS011;9896;42.486;26.506;2022-12-29T00:56:35;28.53;;;12.50;;
19509;SDS011;9896;42.486;26.506;2022-12-29T00:59:10;28.90;;;12.87;;
19509;SDS011;9896;42.486;26.506;2022-12-29T01:01:36;26.77;;;12.93;;
19509;SDS011;9896;42.486;26.506;2022-12-29T01:04:02;19.40;;;10.40;;
19509;SDS011;9896;42.486;26.506;2022-12-29T01:06:28;24.67;;;11.60;;
19509;SDS011;9896;42.486;26.506;2022-12-29T01:08:53;26.13;;;12.23;;
19509;SDS011;9896;42.486;26.506;2022-12-29T01:11:38;32.53;;;14.40;;
19509;SDS011;9896;42.486;26.506;2022-12-29T01:14:03;25.90;;;14.10;;
19509;SDS011;9896;42.486;26.506;2022-12-29T01:16:29;26.07;;;14.13;;
19509;SDS011;9896;42.486;26.506;2022-12-29T01:18:54;32.90;;;14.87;;
19509;SDS011;9896;42.486;26.506;2022-12-29T01:21:20;32.37;;;13.97;;
19509;SDS011;9896;42.486;26.506;2022-12-29T01:23:45;24.23;;;12.23;;
19509;SDS011;9896;42.486;26.506;2022-12-29T01:26:11;26.30;;;13.87;;
19509;SDS011;9896;42.486;26.506;2022-12-29T01:28:37;24.63;;;14.03;;
19509;SDS011;9896;42.486;26.506;2022-12-29T01:31:05;25.07;;;15.57;;
19509;SDS011;9896;42.486;26.506;2022-12-29T01:33:30;30.27;;;12.50;;
19509;SDS011;9896;42.486;26.506;2022-12-29T01:35:59;32.37;;;15.87;;
19509;SDS011;9896;42.486;26.506;2022-12-29T01:38:25;26.30;;;13.73;;
19509;SDS011;9896;42.486;26.506;2022-12-29T01:40:50;21.17;;;11.13;;
19509;SDS011;9896;42.486;26.506;2022-12-29T01:43:16;27.83;;;12.23;;
19509;SDS011;9896;42.486;26.506;2022-12-29T01:45:44;23.20;;;10.67;;
19509;SDS011;9896;42.486;26.506;2022-12-29T01:48:10;28.03;;;10.60;;
19509;SDS011;9896;42.486;26.506;2022-12-29T01:50:38;17.40;;;10.10;;
19509;SDS011;9896;42.486;26.506;2022-12-29T01:55:31;19.37;;;8.90;;
19509;SDS011;9896;42.486;26.506;2022-12-29T01:57:58;21.90;;;8.90;;
19509;SDS011;9896;42.486;26.506;2022-12-29T02:00:25;21.80;;;9.63;;
19509;SDS011;9896;42.486;26.506;2022-12-29T02:02:51;20.73;;;8.70;;
19509;SDS011;9896;42.486;26.506;2022-12-29T02:07:54;22.37;;;8.63;;
19509;SDS011;9896;42.486;26.506;2022-12-29T02:10:20;18.03;;;7.47;;
19509;SDS011;9896;42.486;26.506;2022-12-29T02:12:47;16.47;;;7.43;;
19509;SDS011;9896;42.486;26.506;2022-12-29T02:15:12;16.70;;;8.70;;
19509;SDS011;9896;42.486;26.506;2022-12-29T02:22:56;15.37;;;7.80;;
19509;SDS011;9896;42.486;26.506;2022-12-29T02:40:52;16.80;;;8.47;;
19509;SDS011;9896;42.486;26.506;2022-12-29T02:51:03;20.80;;;7.13;;
19509;SDS011;9896;42.486;26.506;2022-12-29T02:53:29;13.07;;;6.27;;
19509;SDS011;9896;42.486;26.506;2022-12-29T02:56:15;16.87;;;6.40;;
19509;SDS011;9896;42.486;26.506;2022-12-29T02:58:40;14.73;;;6.23;;
19509;SDS011;9896;42.486;26.506;2022-12-29T03:06:40;16.77;;;6.17;;
19509;SDS011;9896;42.486;26.506;2022-12-29T03:09:18;12.17;;;6.53;;
19509;SDS011;9896;42.486;26.506;2022-12-29T03:11:52;15.70;;;7.67;;
19509;SDS011;9896;42.486;26.506;2022-12-29T03:14:35;17.07;;;7.60;;
19509;SDS011;9896;42.486;26.506;2022-12-29T03:19:49;16.13;;;6.43;;
19509;SDS011;9896;42.486;26.506;2022-12-29T03:22:19;19.63;;;8.93;;
19509;SDS011;9896;42.486;26.506;2022-12-29T03:27:31;16.40;;;8.40;;
19509;SDS011;9896;42.486;26.506;2022-12-29T03:30:00;20.30;;;9.40;;
19509;SDS011;9896;42.486;26.506;2022-12-29T03:32:40;23.00;;;9.87;;
19509;SDS011;9896;42.486;26.506;2022-12-29T03:35:07;26.20;;;10.77;;
19509;SDS011;9896;42.486;26.506;2022-12-29T03:37:37;20.33;;;10.60;;
19509;SDS011;9896;42.486;26.506;2022-12-29T03:40:03;52.27;;;21.93;;
19509;SDS011;9896;42.486;26.506;2022-12-29T03:42:29;19.70;;;10.43;;
19509;SDS011;9896;42.486;26.506;2022-12-29T03:44:56;20.23;;;10.73;;
19509;SDS011;9896;42.486;26.506;2022-12-29T03:47:22;17.70;;;9.17;;
19509;SDS011;9896;42.486;26.506;2022-12-29T03:49:47;21.67;;;9.53;;
19509;SDS011;9896;42.486;26.506;2022-12-29T03:52:13;19.53;;;8.83;;
19509;SDS011;9896;42.486;26.506;2022-12-29T03:54:38;18.90;;;8.27;;
19509;SDS011;9896;42.486;26.506;2022-12-29T03:57:04;18.97;;;7.97;;
19509;SDS011;9896;42.486;26.506;2022-12-29T03:59:29;24.63;;;8.73;;
19509;SDS011;9896;42.486;26.506;2022-12-29T04:01:55;18.07;;;8.57;;
19509;SDS011;9896;42.486;26.506;2022-12-29T04:04:20;23.67;;;8.80;;
19509;SDS011;9896;42.486;26.506;2022-12-29T04:06:45;17.43;;;8.90;;
19509;SDS011;9896;42.486;26.506;2022-12-29T04:09:11;19.20;;;9.10;;
19509;SDS011;9896;42.486;26.506;2022-12-29T04:11:36;54.03;;;21.97;;
19509;SDS011;9896;42.486;26.506;2022-12-29T04:14:02;18.83;;;8.83;;
19509;SDS011;9896;42.486;26.506;2022-12-29T04:16:27;20.43;;;8.40;;
19509;SDS011;9896;42.486;26.506;2022-12-29T04:18:53;19.43;;;9.57;;
19509;SDS011;9896;42.486;26.506;2022-12-29T04:21:18;17.73;;;8.87;;
19509;SDS011;9896;42.486;26.506;2022-12-29T04:23:43;20.57;;;9.97;;
19509;SDS011;9896;42.486;26.506;2022-12-29T04:26:09;22.80;;;9.83;;
19509;SDS011;9896;42.486;26.506;2022-12-29T04:28:35;17.97;;;8.40;;
19509;SDS011;9896;42.486;26.506;2022-12-29T04:31:00;20.43;;;7.63;;
19509;SDS011;9896;42.486;26.506;2022-12-29T04:33:26;18.83;;;7.83;;
19509;SDS011;9896;42.486;26.506;2022-12-29T04:35:52;20.50;;;7.50;;
19509;SDS011;9896;42.486;26.506;2022-12-29T04:38:19;13.20;;;7.10;;
19509;SDS011;9896;42.486;26.506;2022-12-29T04:40:44;15.50;;;7.40;;
19509;SDS011;9896;42.486;26.506;2022-12-29T04:43:10;15.37;;;6.93;;
19509;SDS011;9896;42.486;26.506;2022-12-29T04:45:35;16.20;;;7.40;;
19509;SDS011;9896;42.486;26.506;2022-12-29T04:48:01;12.87;;;7.50;;
19509;SDS011;9896;42.486;26.506;2022-12-29T04:50:26;19.33;;;8.43;;
19509;SDS011;9896;42.486;26.506;2022-12-29T04:52:51;16.93;;;8.30;;
19509;SDS011;9896;42.486;26.506;2022-12-29T04:55:17;19.23;;;7.47;;
19509;SDS011;9896;42.486;26.506;2022-12-29T04:57:42;16.07;;;6.60;;
19509;SDS011;9896;42.486;26.506;2022-12-29T05:00:08;15.37;;;7.10;;
19509;SDS011;9896;42.486;26.506;2022-12-29T05:02:36;16.73;;;7.60;;
19509;SDS011;9896;42.486;26.506;2022-12-29T05:05:02;17.93;;;9.57;;
19509;SDS011;9896;42.486;26.506;2022-12-29T05:07:27;13.27;;;6.87;;
19509;SDS011;9896;42.486;26.506;2022-12-29T05:09:53;21.93;;;9.83;;
19509;SDS011;9896;42.486;26.506;2022-12-29T05:12:18;19.03;;;9.10;;
19509;SDS011;9896;42.486;26.506;2022-12-29T05:14:43;11.03;;;6.63;;
19509;SDS011;9896;42.486;26.506;2022-12-29T05:20:12;14.87;;;7.00;;
19509;SDS011;9896;42.486;26.506;2022-12-29T05:22:37;22.27;;;8.93;;
19509;SDS011;9896;42.486;26.506;2022-12-29T05:25:02;14.50;;;6.90;;
19509;SDS011;9896;42.486;26.506;2022-12-29T05:27:28;17.40;;;7.67;;
19509;SDS011;9896;42.486;26.506;2022-12-29T05:29:53;17.90;;;8.90;;
19509;SDS011;9896;42.486;26.506;2022-12-29T05:32:19;16.70;;;8.40;;
19509;SDS011;9896;42.486;26.506;2022-12-29T05:34:44;20.30;;;9.97;;
19509;SDS011;9896;42.486;26.506;2022-12-29T05:37:09;23.27;;;9.33;;
19509;SDS011;9896;42.486;26.506;2022-12-29T05:39:35;21.53;;;10.20;;
19509;SDS011;9896;42.486;26.506;2022-12-29T05:42:00;28.77;;;9.43;;
19509;SDS011;9896;42.486;26.506;2022-12-29T05:44:26;17.40;;;8.73;;
19509;SDS011;9896;42.486;26.506;2022-12-29T05:46:51;20.43;;;8.07;;
19509;SDS011;9896;42.486;26.506;2022-12-29T05:49:16;20.90;;;7.97;;
19509;SDS011;9896;42.486;26.506;2022-12-29T05:54:45;16.43;;;8.03;;
19509;SDS011;9896;42.486;26.506;2022-12-29T05:57:10;19.47;;;6.50;;
19509;SDS011;9896;42.486;26.506;2022-12-29T05:59:36;55.63;;;7.27;;
19509;SDS011;9896;42.486;26.506;2022-12-29T06:02:01;39.43;;;6.20;;
19509;SDS011;9896;42.486;26.506;2022-12-29T06:04:26;34.10;;;7.40;;
19509;SDS011;9896;42.486;26.506;2022-12-29T06:06:52;13.57;;;5.30;;
19509;SDS011;9896;42.486;26.506;2022-12-29T06:09:17;40.73;;;8.10;;
19509;SDS011;9896;42.486;26.506;2022-12-29T06:11:43;29.33;;;7.10;;
19509;SDS011;9896;42.486;26.506;2022-12-29T06:14:08;26.30;;;8.73;;
19509;SDS011;9896;42.486;26.506;2022-12-29T06:16:33;29.60;;;10.87;;
19509;SDS011;9896;42.486;26.506;2022-12-29T06:18:59;23.40;;;9.27;;
19509;SDS011;9896;42.486;26.506;2022-12-29T06:21:25;28.80;;;9.70;;
19509;SDS011;9896;42.486;26.506;2022-12-29T06:23:50;24.97;;;9.97;;
19509;SDS011;9896;42.486;26.506;2022-12-29T06:26:17;28.53;;;10.50;;
19509;SDS011;9896;42.486;26.506;2022-12-29T06:28:42;24.40;;;11.77;;
19509;SDS011;9896;42.486;26.506;2022-12-29T06:31:10;27.20;;;10.50;;
19509;SDS011;9896;42.486;26.506;2022-12-29T06:33:36;43.07;;;6.80;;
19509;SDS011;9896;42.486;26.506;2022-12-29T06:36:01;22.33;;;5.67;;
19509;SDS011;9896;42.486;26.506;2022-12-29T06:38:27;15.30;;;7.70;;
19509;SDS011;9896;42.486;26.506;2022-12-29T06:40:52;35.10;;;9.00;;
19509;SDS011;9896;42.486;26.506;2022-12-29T06:43:18;35.33;;;7.97;;
19509;SDS011;9896;42.486;26.506;2022-12-29T06:45:43;55.13;;;8.97;;
19509;SDS011;9896;42.486;26.506;2022-12-29T06:48:09;17.40;;;7.37;;
19509;SDS011;9896;42.486;26.506;2022-12-29T06:50:34;35.97;;;7.87;;
19509;SDS011;9896;42.486;26.506;2022-12-29T06:53:00;19.07;;;6.20;;
19509;SDS011;9896;42.486;26.506;2022-12-29T06:55:25;9.07;;;4.63;;
19509;SDS011;9896;42.486;26.506;2022-12-29T06:57:53;18.13;;;5.57;;
19509;SDS011;9896;42.486;26.506;2022-12-29T07:00:18;21.20;;;6.07;;
19509;SDS011;9896;42.486;26.506;2022-12-29T07:02:44;27.07;;;7.33;;
19509;SDS011;9896;42.486;26.506;2022-12-29T07:05:09;17.00;;;5.77;;
19509;SDS011;9896;42.486;26.506;2022-12-29T07:07:35;20.17;;;6.33;;
19509;SDS011;9896;42.486;26.506;2022-12-29T07:10:00;29.90;;;8.43;;
19509;SDS011;9896;42.486;26.506;2022-12-29T07:12:26;19.03;;;8.57;;
19509;SDS011;9896;42.486;26.506;2022-12-29T07:14:51;28.07;;;9.03;;
19509;SDS011;9896;42.486;26.506;2022-12-29T07:17:16;23.07;;;5.53;;
19509;SDS011;9896;42.486;26.506;2022-12-29T07:19:42;18.90;;;6.53;;
19509;SDS011;9896;42.486;26.506;2022-12-29T07:22:07;18.17;;;7.33;;
19509;SDS011;9896;42.486;26.506;2022-12-29T07:24:33;28.93;;;8.47;;
19509;SDS011;9896;42.486;26.506;2022-12-29T07:26:58;24.17;;;8.47;;
19509;SDS011;9896;42.486;26.506;2022-12-29T07:29:23;21.73;;;8.67;;
19509;SDS011;9896;42.486;26.506;2022-12-29T07:31:49;37.00;;;7.73;;
19509;SDS011;9896;42.486;26.506;2022-12-29T07:34:14;82.97;;;12.60;;
19509;SDS011;9896;42.486;26.506;2022-12-29T07:36:40;28.40;;;8.03;;
19509;SDS011;9896;42.486;26.506;2022-12-29T07:39:05;16.37;;;8.03;;
19509;SDS011;9896;42.486;26.506;2022-12-29T07:41:31;26.40;;;9.13;;
19509;SDS011;9896;42.486;26.506;2022-12-29T07:43:56;18.53;;;7.07;;
19509;SDS011;9896;42.486;26.506;2022-12-29T07:46:21;12.90;;;7.27;;
19509;SDS011;9896;42.486;26.506;2022-12-29T07:48:47;25.53;;;8.73;;
19509;SDS011;9896;42.486;26.506;2022-12-29T07:51:12;35.40;;;8.40;;
19509;SDS011;9896;42.486;26.506;2022-12-29T07:53:37;18.97;;;8.50;;
19509;SDS011;9896;42.486;26.506;2022-12-29T07:56:03;24.60;;;9.93;;
19509;SDS011;9896;42.486;26.506;2022-12-29T07:58:28;32.60;;;9.13;;
19509;SDS011;9896;42.486;26.506;2022-12-29T08:00:54;19.83;;;10.70;;
19509;SDS011;9896;42.486;26.506;2022-12-29T08:03:19;18.17;;;8.83;;
19509;SDS011;9896;42.486;26.506;2022-12-29T08:05:45;42.30;;;8.47;;
19509;SDS011;9896;42.486;26.506;2022-12-29T08:08:10;18.63;;;7.70;;
19509;SDS011;9896;42.486;26.506;2022-12-29T08:10:36;17.63;;;7.57;;
19509;SDS011;9896;42.486;26.506;2022-12-29T08:13:01;18.90;;;8.13;;
19509;SDS011;9896;42.486;26.506;2022-12-29T08:15:26;23.60;;;8.07;;
19509;SDS011;9896;42.486;26.506;2022-12-29T08:17:52;16.33;;;4.47;;
19509;SDS011;9896;42.486;26.506;2022-12-29T08:20:17;18.30;;;8.63;;
19509;SDS011;9896;42.486;26.506;2022-12-29T08:22:42;23.07;;;6.53;;
19509;SDS011;9896;42.486;26.506;2022-12-29T08:25:08;32.30;;;10.47;;
19509;SDS011;9896;42.486;26.506;2022-12-29T08:27:34;39.20;;;8.63;;
19509;SDS011;9896;42.486;26.506;2022-12-29T08:29:59;23.57;;;8.70;;
19509;SDS011;9896;42.486;26.506;2022-12-29T08:32:25;31.33;;;9.17;;
19509;SDS011;9896;42.486;26.506;2022-12-29T08:34:51;19.67;;;9.67;;
19509;SDS011;9896;42.486;26.506;2022-12-29T08:37:17;25.10;;;9.97;;
19509;SDS011;9896;42.486;26.506;2022-12-29T08:39:42;26.80;;;10.50;;
19509;SDS011;9896;42.486;26.506;2022-12-29T08:42:07;53.40;;;10.90;;
19509;SDS011;9896;42.486;26.506;2022-12-29T08:44:33;36.13;;;10.87;;
19509;SDS011;9896;42.486;26.506;2022-12-29T08:46:58;39.90;;;10.67;;
19509;SDS011;9896;42.486;26.506;2022-12-29T08:49:23;33.93;;;11.17;;
19509;SDS011;9896;42.486;26.506;2022-12-29T08:51:48;29.43;;;10.77;;
19509;SDS011;9896;42.486;26.506;2022-12-29T08:54:14;29.97;;;11.43;;
19509;SDS011;9896;42.486;26.506;2022-12-29T08:56:39;26.47;;;11.67;;
19509;SDS011;9896;42.486;26.506;2022-12-29T08:59:04;29.67;;;10.27;;
19509;SDS011;9896;42.486;26.506;2022-12-29T09:01:30;14.90;;;8.33;;
19509;SDS011;9896;42.486;26.506;2022-12-29T09:03:55;32.80;;;13.40;;
19509;SDS011;9896;42.486;26.506;2022-12-29T09:06:21;25.90;;;12.43;;
19509;SDS011;9896;42.486;26.506;2022-12-29T09:08:46;38.53;;;15.60;;
19509;SDS011;9896;42.486;26.506;2022-12-29T09:13:40;32.77;;;13.03;;
19509;SDS011;9896;42.486;26.506;2022-12-29T09:16:05;31.33;;;13.90;;
19509;SDS011;9896;42.486;26.506;2022-12-29T09:18:31;31.43;;;14.13;;
19509;SDS011;9896;42.486;26.506;2022-12-29T09:21:00;31.60;;;16.60;;
19509;SDS011;9896;42.486;26.506;2022-12-29T09:23:25;30.10;;;13.93;;
19509;SDS011;9896;42.486;26.506;2022-12-29T09:25:51;26.43;;;13.20;;
19509;SDS011;9896;42.486;26.506;2022-12-29T09:28:17;36.33;;;15.20;;
19509;SDS011;9896;42.486;26.506;2022-12-29T09:30:42;32.93;;;14.53;;
19509;SDS011;9896;42.486;26.506;2022-12-29T09:33:07;27.57;;;12.77;;
19509;SDS011;9896;42.486;26.506;2022-12-29T09:35:33;28.10;;;13.93;;
19509;SDS011;9896;42.486;26.506;2022-12-29T09:37:58;25.90;;;13.20;;
19509;SDS011;9896;42.486;26.506;2022-12-29T09:40:26;88.40;;;28.03;;
19509;SDS011;9896;42.486;26.506;2022-12-29T09:48:04;36.23;;;17.67;;
19509;SDS011;9896;42.486;26.506;2022-12-29T09:50:30;33.67;;;18.53;;
19509;SDS011;9896;42.486;26.506;2022-12-29T09:55:24;24.13;;;11.93;;
19509;SDS011;9896;42.486;26.506;2022-12-29T09:57:55;30.17;;;12.83;;
19509;SDS011;9896;42.486;26.506;2022-12-29T10:00:23;32.83;;;14.90;;
19509;SDS011;9896;42.486;26.506;2022-12-29T10:02:57;30.37;;;12.47;;
19509;SDS011;9896;42.486;26.506;2022-12-29T10:10:59;26.63;;;13.60;;
19509;SDS011;9896;42.486;26.506;2022-12-29T10:16:17;25.00;;;13.17;;
19509;SDS011;9896;42.486;26.506;2022-12-29T10:23:51;22.23;;;13.17;;
19509;SDS011;9896;42.486;26.506;2022-12-29T10:26:18;25.13;;;12.00;;
19509;SDS011;9896;42.486;26.506;2022-12-29T10:31:22;17.33;;;9.03;;
19509;SDS011;9896;42.486;26.506;2022-12-29T10:33:56;19.83;;;10.63;;
19509;SDS011;9896;42.486;26.506;2022-12-29T10:36:35;24.10;;;11.83;;
19509;SDS011;9896;42.486;26.506;2022-12-29T10:39:11;22.93;;;12.87;;
19509;SDS011;9896;42.486;26.506;2022-12-29T10:41:49;21.80;;;11.07;;
19509;SDS011;9896;42.486;26.506;2022-12-29T10:44:16;27.77;;;12.43;;
19509;SDS011;9896;42.486;26.506;2022-12-29T10:46:42;20.17;;;11.90;;
19509;SDS011;9896;42.486;26.506;2022-12-29T10:49:13;21.20;;;11.17;;
19509;SDS011;9896;42.486;26.506;2022-12-29T10:51:41;22.10;;;11.37;;
19509;SDS011;9896;42.486;26.506;2022-12-29T10:57:24;25.07;;;12.43;;
19509;SDS011;9896;42.486;26.506;2022-12-29T10:59:43;24.07;;;11.73;;
19509;SDS011;9896;42.486;26.506;2022-12-29T11:07:09;17.47;;;9.97;;
19509;SDS011;9896;42.486;26.506;2022-12-29T11:09:36;19.43;;;10.10;;
19509;SDS011;9896;42.486;26.506;2022-12-29T11:14:46;17.73;;;10.40;;
19509;SDS011;9896;42.486;26.506;2022-12-29T11:17:14;23.20;;;12.10;;
19509;SDS011;9896;42.486;26.506;2022-12-29T11:19:40;18.30;;;9.87;;
19509;SDS011;9896;42.486;26.506;2022-12-29T11:22:20;15.93;;;9.97;;
19509;SDS011;9896;42.486;26.506;2022-12-29T11:24:46;16.53;;;9.80;;
19509;SDS011;9896;42.486;26.506;2022-12-29T11:29:41;14.53;;;9.90;;
19509;SDS011;9896;42.486;26.506;2022-12-29T11:32:21;22.30;;;12.60;;
19509;SDS011;9896;42.486;26.506;2022-12-29T11:34:47;20.57;;;11.77;;
19509;SDS011;9896;42.486;26.506;2022-12-29T11:37:16;16.93;;;10.90;;
19509;SDS011;9896;42.486;26.506;2022-12-29T11:42:21;23.57;;;11.63;;
19509;SDS011;9896;42.486;26.506;2022-12-29T11:44:47;15.53;;;9.30;;
19509;SDS011;9896;42.486;26.506;2022-12-29T11:47:19;21.93;;;11.00;;
19509;SDS011;9896;42.486;26.506;2022-12-29T11:49:50;14.00;;;8.73;;
19509;SDS011;9896;42.486;26.506;2022-12-29T11:52:20;16.93;;;9.20;;
19509;SDS011;9896;42.486;26.506;2022-12-29T11:54:45;14.27;;;8.00;;
19509;SDS011;9896;42.486;26.506;2022-12-29T11:57:15;14.47;;;7.90;;
19509;SDS011;9896;42.486;26.506;2022-12-29T11:59:51;15.43;;;8.97;;
19509;SDS011;9896;42.486;26.506;2022-12-29T12:04:45;14.40;;;7.93;;
19509;SDS011;9896;42.486;26.506;2022-12-29T12:07:19;16.67;;;8.10;;
19509;SDS011;9896;42.486;26.506;2022-12-29T12:09:48;15.90;;;7.97;;
19509;SDS011;9896;42.486;26.506;2022-12-29T12:12:37;18.60;;;8.43;;
19509;SDS011;9896;42.486;26.506;2022-12-29T12:15:00;15.37;;;9.07;;
19509;SDS011;9896;42.486;26.506;2022-12-29T12:17:30;16.37;;;10.23;;
19509;SDS011;9896;42.486;26.506;2022-12-29T12:23:07;20.07;;;9.90;;
19509;SDS011;9896;42.486;26.506;2022-12-29T12:25:38;13.40;;;8.73;;
19509;SDS011;9896;42.486;26.506;2022-12-29T12:28:08;17.20;;;9.80;;
19509;SDS011;9896;42.486;26.506;2022-12-29T12:30:38;15.23;;;8.43;;
19509;SDS011;9896;42.486;26.506;2022-12-29T12:43:37;19.10;;;10.17;;
19509;SDS011;9896;42.486;26.506;2022-12-29T12:46:19;22.70;;;10.47;;
19509;SDS011;9896;42.486;26.506;2022-12-29T12:51:42;20.63;;;9.93;;
19509;SDS011;9896;42.486;26.506;2022-12-29T12:54:18;16.10;;;9.87;;
19509;SDS011;9896;42.486;26.506;2022-12-29T12:56:56;16.77;;;9.33;;
19509;SDS011;9896;42.486;26.506;2022-12-29T13:15:37;13.13;;;8.10;;
19509;SDS011;9896;42.486;26.506;2022-12-29T13:18:16;14.17;;;8.20;;
19509;SDS011;9896;42.486;26.506;2022-12-29T13:23:43;17.90;;;10.70;;
19509;SDS011;9896;42.486;26.506;2022-12-29T13:28:33;13.63;;;8.93;;
19509;SDS011;9896;42.486;26.506;2022-12-29T13:31:04;15.87;;;10.10;;
19509;SDS011;9896;42.486;26.506;2022-12-29T13:38:46;13.00;;;8.23;;
19509;SDS011;9896;42.486;26.506;2022-12-29T13:44:18;21.27;;;9.90;;
19509;SDS011;9896;42.486;26.506;2022-12-29T13:46:46;18.53;;;10.30;;
19509;SDS011;9896;42.486;26.506;2022-12-29T13:49:13;17.73;;;10.37;;
19509;SDS011;9896;42.486;26.506;2022-12-29T13:51:47;17.30;;;10.17;;
19509;SDS011;9896;42.486;26.506;2022-12-29T14:04:57;18.67;;;10.27;;
19509;SDS011;9896;42.486;26.506;2022-12-29T14:07:23;18.80;;;10.03;;
19509;SDS011;9896;42.486;26.506;2022-12-29T14:09:50;13.87;;;9.23;;
19509;SDS011;9896;42.486;26.506;2022-12-29T14:14:44;19.83;;;10.83;;
19509;SDS011;9896;42.486;26.506;2022-12-29T14:17:10;23.87;;;12.50;;
19509;SDS011;9896;42.486;26.506;2022-12-29T14:19:38;21.77;;;12.83;;
19509;SDS011;9896;42.486;26.506;2022-12-29T14:22:06;25.13;;;14.30;;
19509;SDS011;9896;42.486;26.506;2022-12-29T14:27:00;21.93;;;12.50;;
19509;SDS011;9896;42.486;26.506;2022-12-29T14:31:55;17.03;;;10.67;;
19509;SDS011;9896;42.486;26.506;2022-12-29T14:42:34;18.30;;;11.40;;
19509;SDS011;9896;42.486;26.506;2022-12-29T14:44:51;17.77;;;10.20;;
19509;SDS011;9896;42.486;26.506;2022-12-29T14:47:22;17.20;;;10.83;;
19509;SDS011;9896;42.486;26.506;2022-12-29T14:49:52;22.70;;;10.60;;
19509;SDS011;9896;42.486;26.506;2022-12-29T14:52:19;19.17;;;10.93;;
19509;SDS011;9896;42.486;26.506;2022-12-29T14:54:46;19.33;;;11.50;;
19509;SDS011;9896;42.486;26.506;2022-12-29T14:57:36;16.37;;;10.83;;
19509;SDS011;9896;42.486;26.506;2022-12-29T15:02:33;20.80;;;11.60;;
19509;SDS011;9896;42.486;26.506;2022-12-29T15:04:59;18.33;;;11.27;;
19509;SDS011;9896;42.486;26.506;2022-12-29T15:07:26;18.20;;;11.00;;
19509;SDS011;9896;42.486;26.506;2022-12-29T15:10:00;19.10;;;11.13;;
19509;SDS011;9896;42.486;26.506;2022-12-29T15:12:39;19.80;;;12.07;;
19509;SDS011;9896;42.486;26.506;2022-12-29T15:15:20;19.30;;;10.87;;
19509;SDS011;9896;42.486;26.506;2022-12-29T15:17:45;19.33;;;11.77;;
19509;SDS011;9896;42.486;26.506;2022-12-29T15:20:22;17.87;;;11.20;;
19509;SDS011;9896;42.486;26.506;2022-12-29T15:22:49;20.97;;;11.83;;
19509;SDS011;9896;42.486;26.506;2022-12-29T15:25:16;18.83;;;11.20;;
19509;SDS011;9896;42.486;26.506;2022-12-29T15:27:42;18.63;;;10.93;;
19509;SDS011;9896;42.486;26.506;2022-12-29T15:30:12;20.60;;;11.70;;
19509;SDS011;9896;42.486;26.506;2022-12-29T15:32:44;26.40;;;14.17;;
19509;SDS011;9896;42.486;26.506;2022-12-29T15:37:50;30.40;;;14.90;;
19509;SDS011;9896;42.486;26.506;2022-12-29T15:40:37;35.93;;;16.27;;
19509;SDS011;9896;42.486;26.506;2022-12-29T15:45:33;22.13;;;13.97;;
19509;SDS011;9896;42.486;26.506;2022-12-29T15:47:59;26.73;;;14.70;;
19509;SDS011;9896;42.486;26.506;2022-12-29T15:50:26;25.30;;;13.73;;
19509;SDS011;9896;42.486;26.506;2022-12-29T15:52:52;22.43;;;13.83;;
19509;SDS011;9896;42.486;26.506;2022-12-29T15:55:18;21.47;;;13.17;;
19509;SDS011;9896;42.486;26.506;2022-12-29T15:57:45;23.30;;;12.60;;
19509;SDS011;9896;42.486;26.506;2022-12-29T16:00:23;23.90;;;13.80;;
19509;SDS011;9896;42.486;26.506;2022-12-29T16:02:50;20.60;;;11.83;;
19509;SDS011;9896;42.486;26.506;2022-12-29T16:05:16;20.87;;;11.77;;
19509;SDS011;9896;42.486;26.506;2022-12-29T16:07:51;27.03;;;14.50;;
19509;SDS011;9896;42.486;26.506;2022-12-29T16:10:25;31.00;;;17.47;;
19509;SDS011;9896;42.486;26.506;2022-12-29T16:12:51;36.77;;;20.00;;
19509;SDS011;9896;42.486;26.506;2022-12-29T16:15:17;31.00;;;17.53;;
19509;SDS011;9896;42.486;26.506;2022-12-29T16:17:46;21.87;;;13.57;;
19509;SDS011;9896;42.486;26.506;2022-12-29T16:20:17;29.80;;;16.80;;
19509;SDS011;9896;42.486;26.506;2022-12-29T16:22:47;39.30;;;21.47;;
19509;SDS011;9896;42.486;26.506;2022-12-29T16:25:22;37.33;;;21.30;;
19509;SDS011;9896;42.486;26.506;2022-12-29T16:27:48;49.03;;;26.20;;
19509;SDS011;9896;42.486;26.506;2022-12-29T16:30:28;48.83;;;26.30;;
19509;SDS011;9896;42.486;26.506;2022-12-29T16:32:55;50.10;;;25.90;;
19509;SDS011;9896;42.486;26.506;2022-12-29T16:35:22;65.43;;;31.77;;
19509;SDS011;9896;42.486;26.506;2022-12-29T16:37:48;77.83;;;37.83;;
19509;SDS011;9896;42.486;26.506;2022-12-29T16:47:46;65.57;;;30.10;;
19509;SDS011;9896;42.486;26.506;2022-12-29T16:50:13;66.70;;;33.50;;
19509;SDS011;9896;42.486;26.506;2022-12-29T16:52:41;72.23;;;34.17;;
19509;SDS011;9896;42.486;26.506;2022-12-29T16:55:14;67.37;;;32.43;;
19509;SDS011;9896;42.486;26.506;2022-12-29T16:57:40;63.17;;;30.90;;
19509;SDS011;9896;42.486;26.506;2022-12-29T17:00:17;65.57;;;32.27;;
19509;SDS011;9896;42.486;26.506;2022-12-29T17:02:42;62.67;;;31.70;;
19509;SDS011;9896;42.486;26.506;2022-12-29T17:05:14;61.03;;;31.80;;
19509;SDS011;9896;42.486;26.506;2022-12-29T17:07:39;68.67;;;33.17;;
19509;SDS011;9896;42.486;26.506;2022-12-29T17:10:05;68.47;;;35.93;;
19509;SDS011;9896;42.486;26.506;2022-12-29T17:12:30;66.47;;;35.90;;
19509;SDS011;9896;42.486;26.506;2022-12-29T17:14:59;82.83;;;40.20;;
19509;SDS011;9896;42.486;26.506;2022-12-29T17:17:37;78.80;;;37.67;;
19509;SDS011;9896;42.486;26.506;2022-12-29T17:20:20;62.80;;;33.50;;
19509;SDS011;9896;42.486;26.506;2022-12-29T17:22:46;64.67;;;33.23;;
19509;SDS011;9896;42.486;26.506;2022-12-29T17:25:12;62.67;;;33.17;;
19509;SDS011;9896;42.486;26.506;2022-12-29T17:27:40;58.47;;;31.60;;
19509;SDS011;9896;42.486;26.506;2022-12-29T17:30:10;52.43;;;26.60;;
19509;SDS011;9896;42.486;26.506;2022-12-29T17:32:36;49.53;;;25.57;;
19509;SDS011;9896;42.486;26.506;2022-12-29T17:35:02;64.63;;;33.17;;
19509;SDS011;9896;42.486;26.506;2022-12-29T17:37:29;77.80;;;37.77;;